createdAt,value
2018-09-02T00:00:32.189Z,93.70
2018-09-02T00:03:01.449Z,93.90
2018-09-02T00:05:29.938Z,93.80
2018-09-02T00:07:59.048Z,93.60
2018-09-02T00:10:27.913Z,93.70
2018-09-02T00:12:56.403Z,93.40
2018-09-02T00:15:25.180Z,93.60
2018-09-02T00:17:53.620Z,93.80
2018-09-02T00:20:22.116Z,93.90
2018-09-02T00:22:50.553Z,93.60
2018-09-02T00:25:19.229Z,93.70
2018-09-02T00:27:47.686Z,93.70
2018-09-02T00:30:16.386Z,93.70
2018-09-02T00:32:44.849Z,93.80
2018-09-02T00:35:13.327Z,93.50
2018-09-02T00:37:41.800Z,93.70
2018-09-02T00:40:10.783Z,93.90
2018-09-02T00:42:39.289Z,93.70
2018-09-02T00:45:08.408Z,93.80
2018-09-02T00:47:36.988Z,93.90
2018-09-02T00:50:06.457Z,93.60
2018-09-02T00:52:34.906Z,93.90
2018-09-02T00:55:03.633Z,94.00
2018-09-02T00:57:32.097Z,94.00
2018-09-02T01:00:00.581Z,93.90
2018-09-02T01:02:29.053Z,93.60
2018-09-02T01:04:57.505Z,93.50
2018-09-02T01:07:26.261Z,93.90
2018-09-02T01:09:54.767Z,93.70
2018-09-02T01:12:23.277Z,93.80
2018-09-02T01:14:51.759Z,93.90
2018-09-02T01:17:20.593Z,93.90
2018-09-02T01:19:49.064Z,93.50
2018-09-02T01:22:17.575Z,93.50
2018-09-02T01:24:46.066Z,93.40
2018-09-02T01:27:14.632Z,93.30
2018-09-02T01:29:43.143Z,93.60
2018-09-02T01:32:11.850Z,93.20
2018-09-02T01:34:40.366Z,93.30
2018-09-02T01:37:08.875Z,93.50
2018-09-02T01:39:37.368Z,93.60
2018-09-02T01:42:06.004Z,93.50
2018-09-02T01:44:34.481Z,93.70
2018-09-02T01:47:03.210Z,93.50
2018-09-02T01:49:31.715Z,93.10
2018-09-02T01:52:00.214Z,93.50
2018-09-02T01:54:28.655Z,93.60
2018-09-02T01:56:57.111Z,93.90
2018-09-02T01:59:25.635Z,93.70
2018-09-02T02:01:54.150Z,93.70
2018-09-02T02:04:22.683Z,93.50
2018-09-02T02:06:51.166Z,93.50
2018-09-02T02:09:19.615Z,93.40
2018-09-02T02:11:48.154Z,93.40
2018-09-02T02:14:16.638Z,93.50
2018-09-02T02:16:45.167Z,93.40
2018-09-02T02:19:13.643Z,93.20
2018-09-02T02:21:42.111Z,93.40
2018-09-02T02:24:10.619Z,93.00
2018-09-02T02:26:39.118Z,93.00
2018-09-02T02:29:07.616Z,93.10
2018-09-02T02:31:36.107Z,93.30
2018-09-02T02:34:04.579Z,93.20
2018-09-02T02:36:33.078Z,93.20
2018-09-02T02:39:01.556Z,93.30
2018-09-02T02:41:30.058Z,92.90
2018-09-02T02:43:58.531Z,93.10
2018-09-02T02:46:27.036Z,93.30
2018-09-02T02:48:55.530Z,93.40
2018-09-02T02:51:24.014Z,93.10
2018-09-02T02:53:52.546Z,93.50
2018-09-02T02:56:21.023Z,93.20
2018-09-02T02:58:49.596Z,93.20
2018-09-02T03:01:18.339Z,93.10
2018-09-02T03:03:46.843Z,93.10
2018-09-02T03:06:15.499Z,93.40
2018-09-02T03:08:43.971Z,93.60
2018-09-02T03:11:12.586Z,93.50
2018-09-02T03:13:41.067Z,93.70
2018-09-02T03:16:10.114Z,93.90
2018-09-02T03:18:39.037Z,94.20
2018-09-02T03:21:07.493Z,94.50
2018-09-02T03:23:36.023Z,94.50
2018-09-02T03:26:04.559Z,94.60
2018-09-02T03:28:33.015Z,94.60
2018-09-02T03:31:01.518Z,94.70
2018-09-02T03:33:29.992Z,94.90
2018-09-02T03:35:58.486Z,94.80
2018-09-02T03:38:27.037Z,94.90
2018-09-02T03:40:55.515Z,95.00
2018-09-02T03:43:24.007Z,95.20
2018-09-02T03:45:52.519Z,95.00
2018-09-02T03:48:21.407Z,95.00
2018-09-02T03:50:49.854Z,94.90
2018-09-02T03:53:18.342Z,95.00
2018-09-02T03:55:46.838Z,95.10
2018-09-02T03:58:15.292Z,95.10
2018-09-02T04:00:44.127Z,95.10
2018-09-02T04:03:12.626Z,95.20
2018-09-02T04:05:41.132Z,95.30
2018-09-02T04:08:09.596Z,95.50
2018-09-02T04:10:38.102Z,95.40
2018-09-02T04:13:06.645Z,95.50
2018-09-02T04:15:35.139Z,95.60
2018-09-02T04:18:03.644Z,95.80
2018-09-02T04:20:34.718Z,95.80
2018-09-02T04:23:04.028Z,96.10
2018-09-02T04:25:33.298Z,95.90
2018-09-02T04:28:01.781Z,95.90
2018-09-02T04:30:30.485Z,96.00
2018-09-02T04:32:59.000Z,96.10
2018-09-02T04:35:27.499Z,95.90
2018-09-02T04:37:55.958Z,95.90
2018-09-02T04:40:24.451Z,96.00
2018-09-02T04:42:52.939Z,96.10
2018-09-02T04:45:21.515Z,96.10
2018-09-02T04:47:49.994Z,96.00
2018-09-02T04:50:19.653Z,96.00
2018-09-02T04:52:48.150Z,96.10
2018-09-02T04:55:16.615Z,96.20
2018-09-02T04:57:45.716Z,96.20
2018-09-02T05:00:14.268Z,96.00
2018-09-02T05:02:42.735Z,95.90
2018-09-02T05:05:11.275Z,96.00
2018-09-02T05:07:39.780Z,96.20
2018-09-02T05:10:08.271Z,96.20
2018-09-02T05:12:36.774Z,96.20
2018-09-02T05:15:05.339Z,96.10
2018-09-02T05:17:34.411Z,96.20
2018-09-02T05:20:03.236Z,96.30
2018-09-02T05:22:31.759Z,96.20
2018-09-02T05:25:00.256Z,96.30
2018-09-02T05:27:28.828Z,96.40
2018-09-02T05:29:57.299Z,96.30
2018-09-02T05:32:26.085Z,96.40
2018-09-02T05:34:54.895Z,96.30
2018-09-02T05:37:23.354Z,96.30
2018-09-02T05:39:51.815Z,96.30
2018-09-02T05:42:20.602Z,96.20
2018-09-02T05:44:49.318Z,96.30
2018-09-02T05:47:17.796Z,96.40
2018-09-02T05:49:46.303Z,96.50
2018-09-02T05:52:14.797Z,96.40
2018-09-02T05:54:43.273Z,96.70
2018-09-02T05:57:11.779Z,96.20
2018-09-02T05:59:40.262Z,96.40
2018-09-02T06:02:08.866Z,96.40
2018-09-02T06:04:37.341Z,96.50
2018-09-02T06:07:05.852Z,96.50
2018-09-02T06:09:34.340Z,96.60
2018-09-02T06:12:02.823Z,96.80
2018-09-02T06:14:31.474Z,96.60
2018-09-02T06:17:00.022Z,96.50
2018-09-02T06:19:28.494Z,96.50
2018-09-02T06:21:56.990Z,96.30
2018-09-02T06:24:25.711Z,96.60
2018-09-02T06:26:54.198Z,96.70
2018-09-02T06:29:22.671Z,96.70
2018-09-02T06:31:51.168Z,96.80
2018-09-02T06:34:19.623Z,96.70
2018-09-02T06:36:48.155Z,96.70
2018-09-02T06:39:17.550Z,96.90
2018-09-02T06:41:46.020Z,96.80
2018-09-02T06:44:14.535Z,96.70
2018-09-02T06:46:43.015Z,96.70
2018-09-02T06:49:11.487Z,96.70
2018-09-02T06:51:39.982Z,96.60
2018-09-02T06:54:08.529Z,96.70
2018-09-02T06:56:37.068Z,96.60
2018-09-02T06:59:05.596Z,96.30
2018-09-02T07:01:34.115Z,96.40
2018-09-02T07:04:02.605Z,96.50
2018-09-02T07:06:31.126Z,96.60
2018-09-02T07:08:59.602Z,96.60
2018-09-02T07:11:28.099Z,96.40
2018-09-02T07:13:56.597Z,96.30
2018-09-02T07:16:25.097Z,96.40
2018-09-02T07:18:53.591Z,96.40
2018-09-02T07:21:22.121Z,96.50
2018-09-02T07:23:50.609Z,96.30
2018-09-02T07:26:19.088Z,96.60
2018-09-02T07:28:47.587Z,96.60
2018-09-02T07:31:16.178Z,96.50
2018-09-02T07:33:44.686Z,96.40
2018-09-02T07:36:13.188Z,96.50
2018-09-02T07:38:41.990Z,96.50
2018-09-02T07:41:10.511Z,96.60
2018-09-02T07:43:39.049Z,96.50
2018-09-02T07:46:07.831Z,96.40
2018-09-02T07:48:36.409Z,96.50
2018-09-02T07:51:05.084Z,96.70
2018-09-02T07:53:33.574Z,96.60
2018-09-02T07:56:02.076Z,96.50
2018-09-02T07:58:30.600Z,96.60
2018-09-02T08:00:59.282Z,96.50
2018-09-02T08:03:27.794Z,96.40
2018-09-02T08:05:56.271Z,96.70
2018-09-02T08:08:24.772Z,96.70
2018-09-02T08:10:53.278Z,96.60
2018-09-02T08:13:21.758Z,96.50
2018-09-02T08:15:50.276Z,96.50
2018-09-02T08:18:18.806Z,96.50
2018-09-02T08:20:47.310Z,96.30
2018-09-02T08:23:15.850Z,96.50
2018-09-02T08:25:44.347Z,96.50
2018-09-02T08:28:12.880Z,96.50
2018-09-02T08:30:41.344Z,96.50
2018-09-02T08:33:09.894Z,96.60
2018-09-02T08:35:38.311Z,96.40
2018-09-02T08:38:06.812Z,96.60
2018-09-02T08:40:35.284Z,97.00
2018-09-02T08:43:03.823Z,96.60
2018-09-02T08:45:32.294Z,96.50
2018-09-02T08:48:00.786Z,96.50
2018-09-02T08:50:29.342Z,96.50
2018-09-02T08:52:57.821Z,96.40
2018-09-02T08:55:26.313Z,96.50
2018-09-02T08:57:54.868Z,96.50
2018-09-02T09:00:23.464Z,96.50
2018-09-02T09:02:52.591Z,96.40
2018-09-02T09:05:21.115Z,96.30
2018-09-02T09:07:49.849Z,96.40
2018-09-02T09:10:18.211Z,96.30
2018-09-02T09:12:46.739Z,96.30
2018-09-02T09:15:15.249Z,96.30
2018-09-02T09:17:43.735Z,96.30
2018-09-02T09:20:12.207Z,96.30
2018-09-02T09:22:40.758Z,96.30
2018-09-02T09:25:10.603Z,96.30
2018-09-02T09:27:39.496Z,96.30
2018-09-02T09:30:09.029Z,96.30
2018-09-02T09:32:37.720Z,96.50
2018-09-02T09:35:06.549Z,96.40
2018-09-02T09:37:35.031Z,96.40
2018-09-02T09:40:03.541Z,96.30
2018-09-02T09:42:32.070Z,96.00
2018-09-02T09:45:00.614Z,96.40
2018-09-02T09:47:29.106Z,96.60
2018-09-02T09:49:57.608Z,96.40
2018-09-02T09:52:26.184Z,96.40
2018-09-02T09:54:54.671Z,96.30
2018-09-02T09:57:23.134Z,96.30
2018-09-02T09:59:52.036Z,96.40
2018-09-02T10:02:20.547Z,96.50
2018-09-02T10:04:49.041Z,96.50
2018-09-02T10:07:17.536Z,96.70
2018-09-02T10:09:46.047Z,96.50
2018-09-02T10:12:14.572Z,96.30
2018-09-02T10:14:43.055Z,96.00
2018-09-02T10:17:11.557Z,96.00
2018-09-02T10:19:40.383Z,96.00
2018-09-02T10:22:08.875Z,96.10
2018-09-02T10:24:37.383Z,96.30
2018-09-02T10:27:05.913Z,96.10
2018-09-02T10:29:34.402Z,95.80
2018-09-02T10:32:02.917Z,95.90
2018-09-02T10:34:31.411Z,95.60
2018-09-02T10:36:59.928Z,95.60
2018-09-02T10:39:28.407Z,95.60
2018-09-02T10:41:56.945Z,95.90
2018-09-02T10:44:25.492Z,95.40
2018-09-02T10:46:53.961Z,96.10
2018-09-02T10:49:22.527Z,94.10
2018-09-02T10:51:51.025Z,94.80
2018-09-02T10:54:19.536Z,95.30
2018-09-02T10:56:48.523Z,94.50
2018-09-02T10:59:17.023Z,95.00
2018-09-02T11:01:45.518Z,95.10
2018-09-02T11:04:14.003Z,95.20
2018-09-02T11:06:42.506Z,95.30
2018-09-02T11:09:11.932Z,95.50
2018-09-02T11:11:40.470Z,95.20
2018-09-02T11:14:09.696Z,95.00
2018-09-02T11:16:38.546Z,95.10
2018-09-02T11:19:07.367Z,95.10
2018-09-02T11:21:35.964Z,94.50
2018-09-02T11:24:04.736Z,94.90
2018-09-02T11:26:33.219Z,95.20
2018-09-02T11:29:02.178Z,95.60
2018-09-02T11:31:30.698Z,95.80
2018-09-02T11:33:59.205Z,95.30
2018-09-02T11:36:28.015Z,95.30
2018-09-02T11:38:56.514Z,95.40
2018-09-02T11:41:24.991Z,95.50
2018-09-02T11:43:53.473Z,95.40
2018-09-02T11:46:21.971Z,95.50
2018-09-02T11:48:50.483Z,95.40
2018-09-02T11:51:18.952Z,94.80
2018-09-02T11:53:47.466Z,94.70
2018-09-02T11:56:15.936Z,94.80
2018-09-02T11:58:44.446Z,94.30
2018-09-02T12:01:12.932Z,94.40
2018-09-02T12:03:41.424Z,94.80
2018-09-02T12:06:09.922Z,95.50
2018-09-02T12:08:38.414Z,94.80
2018-09-02T12:11:06.926Z,94.60
2018-09-02T12:13:35.426Z,94.30
2018-09-02T12:16:03.954Z,94.40
2018-09-02T12:18:32.509Z,94.60
2018-09-02T12:21:01.014Z,93.90
2018-09-02T12:23:29.479Z,94.60
2018-09-02T12:25:58.235Z,94.50
2018-09-02T12:28:26.720Z,94.30
2018-09-02T12:30:55.187Z,94.40
2018-09-02T12:33:23.698Z,93.90
2018-09-02T12:35:52.169Z,94.40
2018-09-02T12:38:20.929Z,93.60
2018-09-02T12:40:49.423Z,93.80
2018-09-02T12:43:17.942Z,93.70
2018-09-02T12:45:46.501Z,93.90
2018-09-02T12:48:15.057Z,94.40
2018-09-02T12:50:43.530Z,93.80
2018-09-02T12:53:12.038Z,93.30
2018-09-02T12:55:40.550Z,93.10
2018-09-02T12:58:09.054Z,93.00
2018-09-02T13:00:37.542Z,91.80
2018-09-02T13:03:06.344Z,92.40
2018-09-02T13:05:34.916Z,93.00
2018-09-02T13:08:03.418Z,93.00
2018-09-02T13:10:31.927Z,91.70
2018-09-02T13:13:00.686Z,93.00
2018-09-02T13:15:29.168Z,93.30
2018-09-02T13:17:57.691Z,92.90
2018-09-02T13:20:26.189Z,92.70
2018-09-02T13:22:54.702Z,92.00
2018-09-02T13:25:23.188Z,92.20
2018-09-02T13:27:51.679Z,91.60
2018-09-02T13:30:20.171Z,91.20
2018-09-02T13:32:48.654Z,90.40
2018-09-02T13:35:17.157Z,89.40
2018-09-02T13:37:45.651Z,90.00
2018-09-02T13:40:14.539Z,89.10
2018-09-02T13:42:43.023Z,88.40
2018-09-02T13:45:11.543Z,89.10
2018-09-02T13:47:40.090Z,88.00
2018-09-02T13:50:08.631Z,89.00
2018-09-02T13:52:37.113Z,89.60
2018-09-02T13:55:06.378Z,89.70
2018-09-02T13:57:34.863Z,89.40
2018-09-02T14:00:03.450Z,89.40
2018-09-02T14:02:31.951Z,86.30
2018-09-02T14:05:00.440Z,87.60
2018-09-02T14:07:28.931Z,86.70
2018-09-02T14:09:57.680Z,86.70
2018-09-02T14:12:26.486Z,87.80
2018-09-02T14:14:55.371Z,86.30
2018-09-02T14:17:23.848Z,84.30
2018-09-02T14:19:52.367Z,85.60
2018-09-02T14:22:20.839Z,85.70
2018-09-02T14:24:49.324Z,86.50
2018-09-02T14:27:17.823Z,85.40
2018-09-02T14:29:46.363Z,85.70
2018-09-02T14:32:14.871Z,85.50
2018-09-02T14:34:43.377Z,85.60
2018-09-02T14:37:12.079Z,86.00
2018-09-02T14:39:40.600Z,86.90
2018-09-02T14:42:09.111Z,85.60
2018-09-02T14:44:37.624Z,85.50
2018-09-02T14:47:06.310Z,84.90
2018-09-02T14:49:34.781Z,83.20
2018-09-02T14:52:03.272Z,83.80
2018-09-02T14:54:32.214Z,83.20
2018-09-02T14:57:00.705Z,84.10
2018-09-02T14:59:29.202Z,83.80
2018-09-02T15:01:57.706Z,81.90
2018-09-02T15:04:26.211Z,81.80
2018-09-02T15:06:54.687Z,83.70
2018-09-02T15:09:23.191Z,83.50
2018-09-02T15:11:52.026Z,85.80
2018-09-02T15:14:20.797Z,86.40
2018-09-02T15:16:49.635Z,85.10
2018-09-02T15:19:18.137Z,85.10
2018-09-02T15:21:46.740Z,85.30
2018-09-02T15:24:15.222Z,86.40
2018-09-02T15:26:43.683Z,88.10
2018-09-02T15:29:12.199Z,86.10
2018-09-02T15:31:40.723Z,89.00
2018-09-02T15:34:09.216Z,88.90
2018-09-02T15:36:37.987Z,88.10
2018-09-02T15:39:08.285Z,90.50
2018-09-02T15:41:36.779Z,90.20
2018-09-02T15:44:05.382Z,90.10
2018-09-02T15:46:33.812Z,90.40
2018-09-02T15:49:02.361Z,90.90
2018-09-02T15:51:30.897Z,90.80
2018-09-02T15:53:59.419Z,90.80
2018-09-02T15:56:29.426Z,90.90
2018-09-02T15:58:58.163Z,91.00
2018-09-02T16:01:26.778Z,91.20
2018-09-02T16:03:55.283Z,90.40
2018-09-02T16:06:24.157Z,90.50
2018-09-02T16:08:52.655Z,90.50
2018-09-02T16:11:21.173Z,90.50
2018-09-02T16:13:49.686Z,90.40
2018-09-02T16:16:18.250Z,90.50
2018-09-02T16:18:46.763Z,90.60
2018-09-02T16:21:15.307Z,90.70
2018-09-02T16:23:43.827Z,90.30
2018-09-02T16:26:12.371Z,90.60
2018-09-02T16:28:40.959Z,90.70
2018-09-02T16:31:09.433Z,90.80
2018-09-02T16:33:37.945Z,91.00
2018-09-02T16:36:06.520Z,90.90
2018-09-02T16:38:34.987Z,91.00
2018-09-02T16:41:03.442Z,91.10
2018-09-02T16:43:31.980Z,91.20
2018-09-02T16:46:00.475Z,91.30
2018-09-02T16:48:29.045Z,91.40
2018-09-02T16:50:57.560Z,91.00
2018-09-02T16:53:26.059Z,90.70
2018-09-02T16:55:54.555Z,90.80
2018-09-02T16:58:23.112Z,90.90
2018-09-02T17:00:51.586Z,91.00
2018-09-02T17:03:20.679Z,91.10
2018-09-02T17:05:49.184Z,91.30
2018-09-02T17:08:17.669Z,91.50
2018-09-02T17:10:46.496Z,91.20
2018-09-02T17:13:15.051Z,91.30
2018-09-02T17:15:43.556Z,91.40
2018-09-02T17:18:12.092Z,91.50
2018-09-02T17:20:42.899Z,91.60
2018-09-02T17:23:12.268Z,91.70
2018-09-02T17:25:41.831Z,91.90
2018-09-02T17:28:10.292Z,92.40
2018-09-02T17:30:39.038Z,92.20
2018-09-02T17:33:08.677Z,92.30
2018-09-02T17:35:37.171Z,92.30
2018-09-02T17:38:06.182Z,92.40
2018-09-02T17:40:34.667Z,92.70
2018-09-02T17:43:03.389Z,92.60
2018-09-02T17:45:32.087Z,92.90
2018-09-02T17:48:00.611Z,92.80
2018-09-02T17:50:29.087Z,92.90
2018-09-02T17:52:57.594Z,92.80
2018-09-02T17:55:26.479Z,92.90
2018-09-02T17:57:54.992Z,93.00
2018-09-02T18:00:27.689Z,92.90
2018-09-02T18:02:56.675Z,92.90
2018-09-02T18:05:25.183Z,93.00
2018-09-02T18:07:54.020Z,93.10
2018-09-02T18:10:22.512Z,93.10
2018-09-02T18:12:51.002Z,93.20
2018-09-02T18:15:19.500Z,93.30
2018-09-02T18:17:48.240Z,93.40
2018-09-02T18:20:16.912Z,93.50
2018-09-02T18:22:45.427Z,93.40
2018-09-02T18:25:13.919Z,93.50
2018-09-02T18:27:44.990Z,93.30
2018-09-02T18:30:13.515Z,93.30
2018-09-02T18:32:42.135Z,93.20
2018-09-02T18:35:10.514Z,93.70
2018-09-02T18:37:39.028Z,93.20
2018-09-02T18:40:07.744Z,93.10
2018-09-02T18:42:36.268Z,93.20
2018-09-02T18:45:05.071Z,93.00
2018-09-02T18:47:33.570Z,93.10
2018-09-02T18:50:02.076Z,93.10
2018-09-02T18:52:30.560Z,93.10
2018-09-02T18:54:59.056Z,93.00
2018-09-02T18:57:27.585Z,92.90
2018-09-02T18:59:56.069Z,93.00
2018-09-02T19:02:24.654Z,93.00
2018-09-02T19:04:53.151Z,92.70
2018-09-02T19:07:21.663Z,92.90
2018-09-02T19:09:50.155Z,92.80
2018-09-02T19:12:18.683Z,92.80
2018-09-02T19:14:47.206Z,93.00
2018-09-02T19:17:15.705Z,93.10
2018-09-02T19:19:44.213Z,92.90
2018-09-02T19:22:12.735Z,93.00
2018-09-02T19:24:41.235Z,93.10
2018-09-02T19:27:09.741Z,93.00
2018-09-02T19:29:38.349Z,93.10
2018-09-02T19:32:07.143Z,93.10
2018-09-02T19:34:35.619Z,93.00
2018-09-02T19:37:04.142Z,93.10
2018-09-02T19:39:32.612Z,93.00
2018-09-02T19:42:01.117Z,93.40
2018-09-02T19:44:29.637Z,93.00
2018-09-02T19:46:58.298Z,92.80
2018-09-02T19:49:26.675Z,93.10
2018-09-02T19:51:55.167Z,93.20
2018-09-02T19:54:23.670Z,93.10
2018-09-02T19:56:52.183Z,93.50
2018-09-02T19:59:20.682Z,93.00
2018-09-02T20:01:49.158Z,93.20
2018-09-02T20:04:17.658Z,93.20
2018-09-02T20:06:46.169Z,93.10
2018-09-02T20:09:15.056Z,93.20
2018-09-02T20:11:43.548Z,93.20
2018-09-02T20:14:12.798Z,93.20
2018-09-02T20:16:41.293Z,93.00
2018-09-02T20:19:10.146Z,93.20
2018-09-02T20:21:38.626Z,93.10
2018-09-02T20:24:07.402Z,93.20
2018-09-02T20:26:36.708Z,93.20
2018-09-02T20:29:05.341Z,93.00
2018-09-02T20:31:33.801Z,93.00
2018-09-02T20:34:02.254Z,93.20
2018-09-02T20:36:30.841Z,93.20
2018-09-02T20:38:59.325Z,93.30
2018-09-02T20:41:27.774Z,93.40
2018-09-02T20:43:56.294Z,93.50
2018-09-02T20:46:24.840Z,93.50
2018-09-02T20:48:53.366Z,93.50
2018-09-02T20:51:21.879Z,93.60
2018-09-02T20:53:50.350Z,93.50
2018-09-02T20:56:18.806Z,93.90
2018-09-02T20:58:47.315Z,93.50
2018-09-02T21:01:15.746Z,93.60
2018-09-02T21:03:44.261Z,93.60
2018-09-02T21:06:12.752Z,93.60
2018-09-02T21:08:41.213Z,93.60
2018-09-02T21:11:09.694Z,93.60
2018-09-02T21:13:38.171Z,93.60
2018-09-02T21:16:06.631Z,93.70
2018-09-02T21:18:35.096Z,93.70
2018-09-02T21:21:03.638Z,93.80
2018-09-02T21:23:32.581Z,93.80
2018-09-02T21:26:01.014Z,93.80
2018-09-02T21:28:29.800Z,93.90
2018-09-02T21:30:58.292Z,93.60
2018-09-02T21:33:27.030Z,93.90
2018-09-02T21:35:55.497Z,93.90
2018-09-02T21:38:24.145Z,94.00
2018-09-02T21:40:52.612Z,94.10
2018-09-02T21:43:21.054Z,94.00
2018-09-02T21:45:49.537Z,94.00
2018-09-02T21:48:18.008Z,93.90
2018-09-02T21:50:46.502Z,94.00
2018-09-02T21:53:15.005Z,94.00
2018-09-02T21:55:43.505Z,94.00
2018-09-02T21:58:11.974Z,93.90
2018-09-02T22:00:41.749Z,94.00
2018-09-02T22:03:10.211Z,94.10
2018-09-02T22:05:38.718Z,94.10
2018-09-02T22:08:07.189Z,94.10
2018-09-02T22:10:35.661Z,94.10
2018-09-02T22:13:04.121Z,94.20
2018-09-02T22:15:32.597Z,94.30
2018-09-02T22:18:01.041Z,94.30
2018-09-02T22:20:29.502Z,94.30
2018-09-02T22:22:57.942Z,94.30
2018-09-02T22:25:26.407Z,94.20
2018-09-02T22:27:55.104Z,94.20
2018-09-02T22:30:23.549Z,94.10
2018-09-02T22:32:51.982Z,94.10
2018-09-02T22:35:20.461Z,94.20
2018-09-02T22:37:48.921Z,94.10
2018-09-02T22:40:17.368Z,94.20
2018-09-02T22:42:45.853Z,94.30
2018-09-02T22:45:14.275Z,94.30
2018-09-02T22:47:42.793Z,94.20
2018-09-02T22:50:11.270Z,94.10
2018-09-02T22:52:39.705Z,94.10
2018-09-02T22:55:08.205Z,94.10
2018-09-02T22:57:36.955Z,94.20
2018-09-02T23:00:05.870Z,94.10
2018-09-02T23:02:34.541Z,94.20
2018-09-02T23:05:03.225Z,94.30
2018-09-02T23:07:31.658Z,94.30
2018-09-02T23:10:00.126Z,94.40
2018-09-02T23:12:28.611Z,94.30
2018-09-02T23:14:57.050Z,94.30
2018-09-02T23:17:25.517Z,94.50
2018-09-02T23:19:54.006Z,94.60
2018-09-02T23:22:22.481Z,94.60
2018-09-02T23:24:51.100Z,94.50
2018-09-02T23:27:19.871Z,94.50
2018-09-02T23:29:48.305Z,94.50
2018-09-02T23:32:16.778Z,94.40
2018-09-02T23:34:45.514Z,94.50
2018-09-02T23:37:14.073Z,94.50
2018-09-02T23:39:42.574Z,94.50
2018-09-02T23:42:11.028Z,94.90
2018-09-02T23:44:39.526Z,94.60
2018-09-02T23:47:08.005Z,95.00
2018-09-02T23:49:36.452Z,94.80
2018-09-02T23:52:05.161Z,94.70
2018-09-02T23:54:33.619Z,94.50
2018-09-02T23:57:02.057Z,94.70
2018-09-02T23:59:30.507Z,94.60
